Tiempo atmosférico en la estación meteorológica de Abla, Almería (885 m.)

Fecha
DESCASC
Temp. máxima en grados centígrados (hora)
DESCASC
Temp. mínima en grados centígrados (hora)
DESCASC
Temp. media en grados centígrados
DESCASC
Racha de viento máxima en m/sg (hora)
DESCASC
Velocidad máxima media en intervalos de 10 minutos(hora)
DESCASC
Precipitaciones diarias en mm
DESCASC
Precipitaciones de 00:00 a 06:00 en mm
DESCASC
Precipitaciones de 06:00 a 12:00 en mm
DESCASC
Precipitaciones de 12:00 a 18:00 en mm
DESCASC
Precipitaciones de 18:00 a 24:00 en mm
DESCASC
24-09-2017 27.5 (15:50) 12.7 (07:10) 20.1 9.72 (18:20) 5 (18:20) 0 0 0 0 0
23-09-2017 24.7 (15:10) 13.2 (08:40) 19 9.44 (15:40) 5.28 (15:20) 0 0 0 0 0
22-09-2017 25.6 (15:30) 13.8 (08:00) 19.7 10 (13:20) 5.28 (13:10) 0 0 0 0 0
21-09-2017 27.2 (14:50) 13.6 (00:00) 20.4 10.28 (14:30) 5.28 (14:10) 0 0 0 0 0
20-09-2017 25.6 (15:40) 14.3 (00:00) 20 10.56 (14:00) 5 (14:40) 0 0 0 0 0
19-09-2017 29.7 (14:30) 15.8 (00:00) 22.8 9.17 (15:50) 4.72 (17:50) 0 0 0 0 0
18-09-2017 29.2 (15:10) 14.1 (00:00) 21.7 7.22 (13:30) 3.33 (12:40) 0 0 0 0 0
17-09-2017 25.7 (15:00) 11.3 (00:00) 18.5 8.06 (18:00) 3.61 (17:50) 0 0 0 0 0
16-09-2017 24.2 (15:30) 15.4 (00:00) 19.8 8.33 (17:30) 3.89 (16:40) 0 0 0 0 0
15-09-2017 33.2 (14:50) 18.5 (00:00) 25.9 9.44 (17:40) 3.61 (17:20) 0 0 0 0 0
14-09-2017 34.6 (15:50) 18.1 (00:00) 26.3 6.11 (13:50) 2.5 (02:10) 0 0 0 0 0
13-09-2017 29.3 (15:40) 15.2 (00:00) 22.2 11.11 (14:00) 5 (14:20) 0 0 0 0 0
12-09-2017 34.4 (14:20) 19.5 (00:00) 27 10.28 (16:30) 4.72 (18:30) 0 0 0 0 0
11-09-2017 31 (14:40) 15.2 (00:00) 23.1 8.33 (17:30) 3.89 (15:50) 0 0 0 0 0
10-09-2017 27.7 (15:40) 14.8 (00:00) 21.3 8.33 (14:40) 3.33 (18:30) 0 0 0 0 0
09-09-2017 31.1 (13:50) 19.1 (00:00) 25.1 7.78 (12:40) 3.89 (17:30) 0 0 0 0 0
08-09-2017 29.2 (14:30) 15.1 (00:00) 22.2 11.67 (15:40) 4.72 (15:20) 0 0 0 0 0
07-09-2017 28.6 (15:00) 17.2 (00:00) 22.9 8.89 (15:40) 4.72 (16:20) 0 0 0 0 0
06-09-2017 29.9 (14:40) 17.8 (00:00) 23.8 10.56 (18:00) 5 (16:40) 0 0 0 0 0
05-09-2017 29.1 (15:40) 16.2 (00:00) 22.7 10.83 (14:00) 5 (14:50) 0 0 0 0 0
04-09-2017 34.1 (15:20) 19.7 (00:00) 26.9 7.22 (13:20) 3.61 (19:50) 0 0 0 0 0
03-09-2017 29 (14:50) 17 (00:00) 23 8.33 (14:00) 3.61 (14:10) 0 0 0 0 0
02-09-2017 27.3 (15:40) 18.3 (00:00) 22.8 8.89 (20:20) 4.72 (19:40) 0 0 0 0 0
01-09-2017 28.3 (15:20) 15.6 (00:00) 21.9 10.56 (20:10) 5 (18:10) 0 0 0 0 0
31-08-2017 27.8 (15:50) 15.3 (00:00) 21.5 10 (17:50) 5.28 (13:20) 0 0 0 0 0
30-08-2017 19.6 (20:30) 14.8 (00:00) 17.2 6.67 (17:40) 2.78 (15:40) 4.7 0 1.3 3.4 0
29-08-2017 23 (11:40) 14.9 (00:00) 18.9 9.44 (22:30) 4.72 (13:40) 3.6 0 0 3.6 0
28-08-2017 26.5 (16:50) 20.2 (00:00) 23.4 12.22 (11:20) 6.39 (10:20) 0.3 0 0 0 0.3
27-08-2017 31 (15:10) 22 (00:00) 26.5 8.89 (13:10) 4.72 (02:10) 0 0 0 0 0
26-08-2017 32.9 (14:30) 19.6 (00:00) 26.3 11.39 (15:20) 6.11 (15:40) 0 0 0 0 0

Gráficas

Temp. máximas Temp. mínimas Temp. medias Precipitaciones Rachas de viento máximas Velocidades máximas media en intervalos de 10 minutos

Datos horarios

Fecha y hora oficial Temperatura (ºC) Velocidad del viento (km/h) Dirección del viento Racha (km/h) Dirección de racha Precipitación (mm) Presión (hPa) Tendencia (hPa) Humedad (%)
2017-09-24 23:00:00 19.6 6 Oeste 13 Oeste 0 -- -- 50
2017-09-24 22:00:00 19.8 4 Noroeste 12 Nordeste 0 -- -- 52
2017-09-24 21:00:00 20.4 6 Nordeste 21 Este 0 -- -- 56
2017-09-24 20:00:00 21.9 10 Nordeste 34 Este 0 -- -- 42
2017-09-24 19:00:00 23.4 15 Nordeste 35 Nordeste 0 -- -- 42
2017-09-24 18:00:00 24.7 15 Nordeste 30 Nordeste 0 -- -- 35
2017-09-24 17:00:00 25.7 16 Este 31 Este 0 -- -- 30
2017-09-24 16:00:00 27.1 15 Este 29 Este 0 -- -- 28
2017-09-24 15:00:00 26.8 14 Nordeste 30 Este 0 -- -- 27
2017-09-24 14:00:00 26.1 14 Este 31 Este 0 -- -- 27
2017-09-24 13:00:00 26.4 13 Nordeste 28 Nordeste 0 -- -- 27
2017-09-24 12:00:00 24.4 12 Nordeste 23 Nordeste 0 -- -- 32
2017-09-24 11:00:00 22.3 7 Este 14 Este 0 -- -- 45
2017-09-24 10:00:00 19.1 0 Calma 4 Este 0 -- -- 48
2017-09-24 09:00:00 15.6 0 Calma 5 Este 0 -- -- 56
2017-09-24 08:00:00 13 0 Calma 8 Oeste 0 -- -- 66
2017-09-24 07:00:00 12.9 0 Calma 3 Este 0 -- -- 71
2017-09-24 06:00:00 13.7 0 Calma 2 Este 0 -- -- 72
2017-09-24 05:00:00 14 0 Calma 9 Noroeste 0 -- -- 71
2017-09-24 04:00:00 15.3 2 Noroeste 8 Noroeste 0 -- -- 57
2017-09-24 03:00:00 14.6 3 Noroeste 10 Oeste 0 -- -- 84
2017-09-24 02:00:00 16 2 Noroeste 9 Norte 0 -- -- 68
2017-09-24 01:00:00 16.5 3 Noroeste 8 Norte 0 -- -- 79
2017-09-24 00:00:00 16 0 Calma 9 Nordeste 0 -- -- 89
2017-09-23 23:00:00 17.2 2 Nordeste 17 Nordeste 0 -- -- 87
2017-09-23 22:00:00 18.1 6 Nordeste 18 Este 0 -- -- 83
2017-09-23 21:00:00 19.4 9 Este 24 Este 0 -- -- 72
2017-09-23 20:00:00 20.9 11 Este 23 Este 0 -- -- 58
2017-09-23 19:00:00 22.7 13 Este 27 Este 0 -- -- 48
2017-09-23 18:00:00 23.8 11 Nordeste 27 Este 0 -- -- 44
2017-09-23 17:00:00 23.9 14 Nordeste 31 Este 0 -- -- 44
2017-09-23 16:00:00 24 17 Nordeste 34 Este 0 -- -- 44
2017-09-23 15:00:00 24 18 Este 31 Este 0 -- -- 44
2017-09-23 14:00:00 22.9 14 Nordeste 31 Este 0 -- -- 45
2017-09-23 13:00:00 22.5 11 Nordeste 28 Nordeste 0 -- -- 48
2017-09-23 12:00:00 19.5 14 Este 30 Este 0 -- -- 57
2017-09-23 11:00:00 18.3 12 Nordeste 23 Este 0 -- -- 67
2017-09-23 10:00:00 17.2 0 Calma 7 Norte 0 -- -- 74
2017-09-23 09:00:00 13.8 0 Calma 5 Oeste 0 -- -- 84
2017-09-23 08:00:00 13.8 3 Noroeste 10 Oeste 0 -- -- 87
2017-09-23 07:00:00 14.3 2 Norte 9 Noroeste 0 -- -- 82
2017-09-23 06:00:00 15.4 3 Noroeste 11 Norte 0 -- -- 74
2017-09-23 05:00:00 15.4 4 Norte 11 Oeste 0 -- -- 75
2017-09-23 04:00:00 15.4 3 Norte 10 Noroeste 0 -- -- 78
2017-09-23 03:00:00 16 4 Nordeste 16 Este 0 -- -- 88
2017-09-23 02:00:00 16.8 6 Este 17 Nordeste 0 -- -- 84
2017-09-23 01:00:00 17.2 6 Este 18 Este 0 -- -- 83
2017-09-23 00:00:00 17.7 12 Nordeste 21 Este 0 -- -- 84
2017-09-22 23:00:00 18 12 Nordeste 22 Nordeste 0 -- -- 85
2017-09-22 22:00:00 18.2 12 Nordeste 27 Nordeste 0 -- -- 85
2017-09-22 21:00:00 18.8 13 Nordeste 24 Nordeste 0 -- -- 81
2017-09-22 20:00:00 20.2 11 Este 28 Este 0 -- -- 68
2017-09-22 19:00:00 21.9 14 Nordeste 33 Este 0 -- -- 59
2017-09-22 18:00:00 23.4 16 Este 35 Este 0 -- -- 49
2017-09-22 17:00:00 24.1 17 Nordeste 33 Este 0 -- -- 46
2017-09-22 16:00:00 24.8 15 Nordeste 33 Este 0 -- -- 42
2017-09-22 15:00:00 25 16 Nordeste 36 Este 0 -- -- 40
2017-09-22 14:00:00 25.4 15 Nordeste 36 Este 0 -- -- 39
2017-09-22 13:00:00 23.6 18 Nordeste 35 Este 0 -- -- 39
2017-09-22 12:00:00 23.8 16 Nordeste 31 Nordeste 0 -- -- 35
2017-09-22 11:00:00 22.8 13 Nordeste 23 Este 0 -- -- 38
2017-09-22 10:00:00 21.2 0 Calma 8 Este 0 -- -- 49
2017-09-22 09:00:00 17.8 0 Calma 8 Noroeste 0 -- -- 57
2017-09-22 08:00:00 13.9 0 Calma 4 Oeste 0 -- -- 64
2017-09-22 07:00:00 14.8 0 Calma 6 Oeste 0 -- -- 62
2017-09-22 06:00:00 15.7 3 Noroeste 8 Oeste 0 -- -- 60
2017-09-22 05:00:00 16.4 5 Oeste 10 Oeste 0 -- -- 60
2017-09-22 04:00:00 16.8 2 Norte 6 Noroeste 0 -- -- 56
2017-09-22 03:00:00 17.2 0 Calma 6 Oeste 0 -- -- 56
2017-09-22 02:00:00 16.9 2 Noroeste 8 Oeste 0 -- -- 56
2017-09-22 01:00:00 17.4 0 Calma 9 Noroeste 0 -- -- 55
2017-09-22 00:00:00 18.4 4 Noroeste 9 Noroeste 0 -- -- 50
2017-09-21 23:00:00 18.8 3 Norte 9 Noroeste 0 -- -- 49
2017-09-21 22:00:00 19.9 3 Nordeste 13 Nordeste 0 -- -- 47
2017-09-21 21:00:00 20.7 7 Nordeste 21 Este 0 -- -- 44
2017-09-21 20:00:00 22 8 Nordeste 25 Nordeste 0 -- -- 44
2017-09-21 19:00:00 23.2 13 Este 32 Este 0 -- -- 40
2017-09-21 18:00:00 24.6 15 Nordeste 33 Este 0 -- -- 35
2017-09-21 17:00:00 25 14 Nordeste 31 Este 0 -- -- 33
2017-09-21 16:00:00 26.3 15 Nordeste 34 Nordeste 0 -- -- 31
2017-09-21 15:00:00 26.5 16 Nordeste 37 Nordeste 0 -- -- 31
2017-09-21 14:00:00 26 18 Este 36 Nordeste 0 -- -- 31
2017-09-21 13:00:00 25.5 15 Nordeste 31 Este 0 -- -- 34
2017-09-21 12:00:00 24.2 14 Nordeste 30 Este 0 -- -- 37
2017-09-21 11:00:00 22.2 10 Nordeste 17 Nordeste 0 -- -- 46
2017-09-21 10:00:00 20 0 Calma 5 Nordeste 0 -- -- 53
2017-09-21 09:00:00 16.7 0 Calma 11 Oeste 0 -- -- 61
2017-09-21 08:00:00 13.6 4 Noroeste 10 Noroeste 0 -- -- 65
2017-09-21 07:00:00 14.4 0 Calma 12 Noroeste 0 -- -- 64
2017-09-21 06:00:00 15.2 4 Oeste 14 Oeste 0 -- -- 63
2017-09-21 05:00:00 15.3 4 Noroeste 8 Noroeste 0 -- -- 68
2017-09-21 04:00:00 16.1 0 Calma 9 Oeste 0 -- -- 66
2017-09-21 03:00:00 15.3 0 Calma 7 Oeste 0 -- -- 65
2017-09-21 02:00:00 16.8 4 Oeste 7 Oeste 0 -- -- 62
2017-09-21 01:00:00 17.4 3 Norte 8 Noroeste 0 -- -- 58
2017-09-21 00:00:00 17.8 0 Calma 7 Noroeste 0 -- -- 57
2017-09-20 23:00:00 18.9 2 Noroeste 8 Nordeste 0 -- -- 56
2017-09-20 22:00:00 19.3 3 Norte 9 Nordeste 0 -- -- 55
2017-09-20 21:00:00 19.8 5 Nordeste 21 Este 0 -- -- 53
2017-09-20 20:00:00 21.4 10 Nordeste 26 Este 0 -- -- 49
2017-09-20 19:00:00 22.7 13 Nordeste 35 Nordeste 0 -- -- 45
2017-09-20 18:00:00 23.4 15 Nordeste 32 Este 0 -- -- 45
2017-09-20 17:00:00 23.5 18 Este 34 Este 0 -- -- 45
2017-09-20 16:00:00 24.9 16 Nordeste 36 Nordeste 0 -- -- 42
2017-09-20 15:00:00 24.6 15 Nordeste 37 Norte 0 -- -- 42
2017-09-20 14:00:00 24.9 15 Nordeste 38 Nordeste 0 -- -- 42
2017-09-20 13:00:00 24.4 15 Nordeste 32 Este 0 -- -- 42
2017-09-20 12:00:00 23.8 12 Nordeste 24 Nordeste 0 -- -- 42
2017-09-20 11:00:00 22 10 Nordeste 20 Nordeste 0 -- -- 45
2017-09-20 10:00:00 20.5 0 Calma 5 Nordeste 0 -- -- 47
2017-09-20 09:00:00 16.6 0 Calma 7 Noroeste 0 -- -- 51
2017-09-20 08:00:00 14.7 4 Noroeste 11 Noroeste 0 -- -- 54
2017-09-20 07:00:00 15.4 3 Noroeste 9 Noroeste 0 -- -- 53
2017-09-20 06:00:00 15.2 8 Noroeste 14 Oeste 0 -- -- 56
2017-09-20 05:00:00 17.3 0 Calma 9 Noroeste 0 -- -- 53
2017-09-20 04:00:00 15.3 3 Noroeste 11 Noroeste 0 -- -- 61
2017-09-20 03:00:00 16.7 0 Calma 9 Noroeste 0 -- -- 58
2017-09-20 02:00:00 16.3 8 Noroeste 12 Noroeste 0 -- -- 66
2017-09-20 01:00:00 16.8 5 Oeste 9 Oeste 0 -- -- 68
2017-09-20 00:00:00 17.5 0 Calma 6 Oeste 0 -- -- 68
2017-09-19 23:00:00 17.8 2 Noroeste 7 Oeste 0 -- -- 66
2017-09-19 22:00:00 18.3 0 Calma 11 Nordeste 0 -- -- 64
2017-09-19 21:00:00 18.7 7 Nordeste 23 Nordeste 0 -- -- 62
2017-09-19 20:00:00 20 13 Este 29 Este 0 -- -- 59
2017-09-19 19:00:00 21.6 12 Nordeste 30 Este 0 -- -- 55
2017-09-19 18:00:00 23.1 12 Nordeste 29 Este 0 -- -- 51
2017-09-19 17:00:00 24.2 15 Este 29 Este 0 -- -- 46
2017-09-19 16:00:00 26.2 14 Nordeste 33 Este 0 -- -- 37
2017-09-19 15:00:00 29.4 5 Norte 19 Noroeste 0 -- -- 27
2017-09-19 14:00:00 28.6 8 Noroeste 18 Noroeste 0 -- -- 29
2017-09-19 13:00:00 26.1 5 Noroeste 18 Noroeste 0 -- -- 34
2017-09-19 12:00:00 25.2 5 Norte 17 Noroeste 0 -- -- 38
2017-09-19 11:00:00 23.4 6 Norte 16 Norte 0 -- -- 42
2017-09-19 10:00:00 21.3 6 Norte 13 Norte 0 -- -- 46
2017-09-19 09:00:00 18.2 7 Noroeste 17 Noroeste 0 -- -- 51
2017-09-19 08:00:00 16 4 Norte 15 Norte 0 -- -- 53
2017-09-19 07:00:00 16.2 4 Norte 15 Noroeste 0 -- -- 53
2017-09-19 06:00:00 16.2 6 Noroeste 15 Noroeste 0 -- -- 51
2017-09-19 05:00:00 16.4 7 Noroeste 14 Noroeste 0 -- -- 50
2017-09-19 04:00:00 16.6 4 Noroeste 13 Oeste 0 -- -- 49
2017-09-19 03:00:00 17.4 3 Norte 17 Noroeste 0 -- -- 46
2017-09-19 02:00:00 18.5 7 Noroeste 18 Noroeste 0 -- -- 43
2017-09-19 01:00:00 18.9 7 Norte 18 Noroeste 0 -- -- 41
2017-09-19 00:00:00 19.5 7 Noroeste 14 Noroeste 0 -- -- 39
2017-09-18 23:00:00 20.6 5 Noroeste 23 Noroeste 0 -- -- 37
2017-09-18 22:00:00 21.4 8 Norte 23 Noroeste 0 -- -- 35
2017-09-18 21:00:00 22.5 8 Noroeste 26 Norte 0 -- -- 30
2017-09-18 20:00:00 24.1 9 Noroeste 22 Norte 0 -- -- 27
2017-09-18 19:00:00 25.7 9 Norte 21 Noroeste 0 -- -- 25
2017-09-18 18:00:00 27.1 8 Noroeste 24 Norte 0 -- -- 24
2017-09-18 17:00:00 27.8 9 Noroeste 23 Norte 0 -- -- 24
2017-09-18 16:00:00 29 10 Noroeste 23 Norte 0 -- -- 23
2017-09-18 15:00:00 28.7 9 Norte 24 Norte 0 -- -- 23
2017-09-18 14:00:00 28 9 Noroeste 26 Nordeste 0 -- -- 24
2017-09-18 13:00:00 26.8 11 Norte 25 Noroeste 0 -- -- 25
2017-09-18 12:00:00 25.4 9 Noroeste 21 Noroeste 0 -- -- 28
2017-09-18 11:00:00 23.3 9 Noroeste 23 Noroeste 0 -- -- 38
2017-09-18 10:00:00 21.6 10 Noroeste 18 Noroeste 0 -- -- 39
2017-09-18 09:00:00 18.8 5 Noroeste 17 Noroeste 0 -- -- 41
2017-09-18 08:00:00 14.5 9 Oeste 15 Oeste 0 -- -- 46
2017-09-18 07:00:00 15.8 5 Noroeste 14 Oeste 0 -- -- 45
2017-09-18 06:00:00 14.8 7 Noroeste 13 Oeste 0 -- -- 45
2017-09-18 05:00:00 16.8 4 Noroeste 16 Noroeste 0 -- -- 42
2017-09-18 04:00:00 16.2 6 Noroeste 18 Oeste 0 -- -- 43
2017-09-18 03:00:00 17.7 8 Noroeste 17 Oeste 0 -- -- 41
2017-09-18 02:00:00 18 5 Noroeste 14 Noroeste 0 -- -- 42
2017-09-18 01:00:00 17.6 5 Noroeste 14 Noroeste 0 -- -- 47
2017-09-18 00:00:00 18.9 5 Norte 13 Norte 0 -- -- 45
2017-09-17 23:00:00 18.3 3 Noroeste 9 Oeste 0 -- -- 61
2017-09-17 22:00:00 18.4 3 Norte 9 Oeste 0 -- -- 65
2017-09-17 21:00:00 18.8 3 Este 12 Este 0 -- -- 72
2017-09-17 20:00:00 20 6 Nordeste 22 Nordeste 0 -- -- 64
2017-09-17 19:00:00 21.2 11 Nordeste 27 Nordeste 0 -- -- 56
2017-09-17 18:00:00 22.6 13 Nordeste 29 Este 0 -- -- 46
2017-09-17 17:00:00 23.8 11 Nordeste 25 Este 0 -- -- 42
2017-09-17 16:00:00 25.2 10 Nordeste 23 Este 0 -- -- 41
2017-09-17 15:00:00 24.4 8 Nordeste 22 Nordeste 0 -- -- 41
2017-09-17 14:00:00 24 9 Nordeste 24 Nordeste 0 -- -- 42
2017-09-17 13:00:00 22.6 10 Nordeste 22 Este 0 -- -- 42
2017-09-17 12:00:00 20.9 9 Nordeste 25 Este 0 -- -- 43
2017-09-17 11:00:00 20.6 6 Nordeste 12 Nordeste 0 -- -- 50
2017-09-17 10:00:00 18.2 0 Calma 7 Nordeste 0 -- -- 42
2017-09-17 09:00:00 13.9 0 Calma 9 Oeste 0 -- -- 47
2017-09-17 08:00:00 12.3 4 Oeste 9 Oeste 0 -- -- 49
2017-09-17 07:00:00 11.6 5 Noroeste 9 Noroeste 0 -- -- 50
2017-09-17 06:00:00 12 0 Calma 10 Noroeste 0 -- -- 47
2017-09-17 05:00:00 12.3 0 Calma 8 Oeste 0 -- -- 47
2017-09-17 04:00:00 13 3 Oeste 12 Oeste 0 -- -- 43
2017-09-17 03:00:00 13.9 2 Noroeste 10 Noroeste 0 -- -- 43
2017-09-17 02:00:00 14.6 4 Noroeste 8 Oeste 0 -- -- 39
2017-09-17 01:00:00 16.5 4 Noroeste 12 Norte 0 -- -- 40
2017-09-17 00:00:00 16.2 2 Noroeste 9 Noroeste 0 -- -- 69
2017-09-16 23:00:00 16.3 0 Calma 7 Norte 0 -- -- 70
2017-09-16 22:00:00 16.3 2 Nordeste 8 Nordeste 0 -- -- 81
2017-09-16 21:00:00 17.6 3 Nordeste 19 Nordeste 0 -- -- 75
2017-09-16 20:00:00 18.7 9 Nordeste 24 Nordeste 0 -- -- 69
2017-09-16 19:00:00 19.9 11 Nordeste 26 Este 0 -- -- 62
2017-09-16 18:00:00 21.2 10 Este 30 Nordeste 0 -- -- 55
2017-09-16 17:00:00 21.1 14 Nordeste 28 Este 0 -- -- 55
2017-09-16 16:00:00 22.9 13 Nordeste 27 Este 0 -- -- 49
2017-09-16 15:00:00 22.8 12 Nordeste 23 Este 0 -- -- 46
2017-09-16 14:00:00 21.8 7 Nordeste 22 Este 0 -- -- 46
2017-09-16 13:00:00 20.2 6 Nordeste 17 Este 0 -- -- 49
2017-09-16 12:00:00 20.5 7 Nordeste 20 Este 0 -- -- 49
2017-09-16 11:00:00 20.7 4 Nordeste 10 Este 0 -- -- 55
2017-09-16 10:00:00 19.1 2 Nordeste 10 Norte 0 -- -- 66
2017-09-16 09:00:00 16.3 3 Noroeste 13 Noroeste 0 -- -- 62
2017-09-16 08:00:00 15.7 3 Noroeste 15 Norte 0 -- -- 64
2017-09-16 07:00:00 15.9 5 Norte 13 Noroeste 0 -- -- 60
2017-09-16 06:00:00 15.7 4 Norte 13 Norte 0 -- -- 56
2017-09-16 05:00:00 15.6 4 Noroeste 13 Norte 0 -- -- 46
2017-09-16 04:00:00 16.1 4 Noroeste 15 Norte 0 -- -- 38
2017-09-16 03:00:00 16.7 3 Norte 11 Norte 0 -- -- 34
2017-09-16 02:00:00 15.7 3 Norte 13 Noroeste 0 -- -- 27
2017-09-16 01:00:00 17.7 5 Norte 15 Noroeste 0 -- -- 25
2017-09-16 00:00:00 18.7 5 Noroeste 13 Noroeste 0 -- -- 23
2017-09-15 23:00:00 20.7 4 Norte 19 Noroeste 0 -- -- 20
2017-09-15 22:00:00 21.8 6 Norte 22 Norte 0 -- -- 18
2017-09-15 21:00:00 23 10 Noroeste 24 Noroeste 0 -- -- 17
2017-09-15 20:00:00 25.1 8 Noroeste 22 Noroeste 0 -- -- 16
2017-09-15 19:00:00 27 13 Noroeste 24 Norte 0 -- -- 18
2017-09-15 18:00:00 28.6 8 Norte 34 Noroeste 0 -- -- 20
2017-09-15 17:00:00 30.2 6 Norte 25 Norte 0 -- -- 20
2017-09-15 16:00:00 31.3 6 Norte 21 Norte 0 -- -- 20
2017-09-15 15:00:00 32.6 4 Norte 17 Norte 0 -- -- 18
2017-09-15 14:00:00 30.3 6 Norte 19 Norte 0 -- -- 22
2017-09-15 13:00:00 29.6 6 Norte 19 Noroeste 0 -- -- 22
2017-09-15 12:00:00 29.1 8 Norte 19 Noroeste 0 -- -- 25
2017-09-15 11:00:00 27.1 3 Noroeste 10 Noroeste 0 -- -- 27
2017-09-15 10:00:00 25.8 5 Norte 11 Norte 0 -- -- 32
2017-09-15 09:00:00 21.1 3 Norte 13 Norte 0 -- -- 37
2017-09-15 08:00:00 20.3 4 Norte 12 Noroeste 0 -- -- 36
2017-09-15 07:00:00 21.4 4 Noroeste 12 Norte 0 -- -- 35
2017-09-15 06:00:00 21.9 2 Noroeste 12 Noroeste 0 -- -- 33
2017-09-15 05:00:00 22.9 3 Noroeste 11 Noroeste 0 -- -- 30
2017-09-15 04:00:00 22.8 2 Noroeste 11 Norte 0 -- -- 29
2017-09-15 03:00:00 23.5 6 Norte 14 Norte 0 -- -- 27
2017-09-15 02:00:00 23.9 3 Norte 13 Noroeste 0 -- -- 27
2017-09-15 01:00:00 24.5 5 Noroeste 11 Noroeste 0 -- -- 26
2017-09-15 00:00:00 25.6 2 Noroeste 10 Noroeste 0 -- -- 25
2017-09-14 23:00:00 26.1 2 Noroeste 12 Noroeste 0 -- -- 24
2017-09-14 22:00:00 26.5 4 Noroeste 14 Norte 0 -- -- 23
2017-09-14 21:00:00 27.8 6 Noroeste 18 Noroeste 0 -- -- 22
2017-09-14 20:00:00 28.7 6 Noroeste 15 Noroeste 0 -- -- 22
2017-09-14 19:00:00 30.6 3 Noroeste 20 Sur 0 -- -- 21
2017-09-14 18:00:00 31.8 5 Sudoeste 18 Sur 0 -- -- 19
2017-09-14 17:00:00 32.5 5 Norte 21 Noroeste 0 -- -- 18
2017-09-14 16:00:00 33.6 3 Norte 17 Norte 0 -- -- 18
2017-09-14 15:00:00 33.3 3 Norte 19 Norte 0 -- -- 21
2017-09-14 14:00:00 32.7 4 Norte 22 Noroeste 0 -- -- 23
2017-09-14 13:00:00 31.5 5 Norte 18 Noroeste 0 -- -- 25
2017-09-14 12:00:00 29.5 5 Norte 19 Noroeste 0 -- -- 27
2017-09-14 11:00:00 28.3 7 Norte 18 Noroeste 0 -- -- 30
2017-09-14 10:00:00 25.2 6 Noroeste 15 Oeste 0 -- -- 32
2017-09-14 09:00:00 21.5 6 Oeste 19 Oeste 0 -- -- 35
2017-09-14 08:00:00 19.6 5 Noroeste 13 Oeste 0 -- -- 37
2017-09-14 07:00:00 20.9 3 Noroeste 14 Noroeste 0 -- -- 36
2017-09-14 06:00:00 21.5 3 Noroeste 11 Norte 0 -- -- 35
2017-09-14 05:00:00 21.5 3 Noroeste 12 Oeste 0 -- -- 36
2017-09-14 04:00:00 21.6 4 Oeste 10 Oeste 0 -- -- 38
2017-09-14 03:00:00 19.8 0 Calma 13 Oeste 0 -- -- 41
2017-09-14 02:00:00 18.5 8 Oeste 13 Noroeste 0 -- -- 43
2017-09-14 01:00:00 18.8 0 Calma 5 Oeste 0 -- -- 42
2017-09-14 00:00:00 20.1 0 Calma 13 Sudoeste 0 -- -- 38
2017-09-13 23:00:00 20.9 3 Noroeste 9 Nordeste 0 -- -- 37
2017-09-13 22:00:00 22.3 0 Calma 13 Este 0 -- -- 35
2017-09-13 21:00:00 23.1 7 Este 23 Sudeste 0 -- -- 34
2017-09-13 20:00:00 24.5 10 Este 30 Este 0 -- -- 31
2017-09-13 19:00:00 25.8 14 Este 33 Este 0 -- -- 31
2017-09-13 18:00:00 26.8 13 Este 35 Este 0 -- -- 30
2017-09-13 17:00:00 27.4 16 Este 38 Norte 0 -- -- 29
2017-09-13 16:00:00 28.4 16 Este 37 Este 0 -- -- 29
2017-09-13 15:00:00 28.8 15 Este 37 Este 0 -- -- 29
2017-09-13 14:00:00 28.3 15 Este 40 Este 0 -- -- 31
2017-09-13 13:00:00 27.2 12 Este 29 Este 0 -- -- 32
2017-09-13 12:00:00 25.6 14 Nordeste 28 Este 0 -- -- 35
2017-09-13 11:00:00 23.8 12 Nordeste 42 Nordeste 0 -- -- 46
2017-09-13 10:00:00 20.9 8 Nordeste 21 Este 0 -- -- 68
2017-09-13 09:00:00 17.3 0 Calma 9 Este 0 -- -- 91
2017-09-13 08:00:00 15.4 0 Calma 4 Nordeste 0 -- -- 68
2017-09-13 07:00:00 16.1 0 Calma 5 Noroeste 0 -- -- 73
2017-09-13 06:00:00 15.7 0 Calma 7 Noroeste 0 -- -- 82
2017-09-13 05:00:00 17.3 2 Norte 7 Norte 0 -- -- 57
2017-09-13 04:00:00 18.1 2 Noroeste 9 Oeste 0 -- -- 52
2017-09-13 03:00:00 19.3 2 Norte 8 Noroeste 0 -- -- 54
2017-09-13 02:00:00 18.7 0 Calma 5 Noroeste 0 -- -- 60
2017-09-13 01:00:00 18.9 0 Calma 8 Nordeste 0 -- -- 80
2017-09-13 00:00:00 19.8 3 Noroeste 9 Norte 0 -- -- 51
2017-09-12 23:00:00 21.1 2 Noroeste 7 Oeste 0 -- -- 55
2017-09-12 22:00:00 21.5 2 Norte 9 Este 0 -- -- 49
2017-09-12 21:00:00 22.9 4 Nordeste 22 Este 0 -- -- 44
2017-09-12 20:00:00 24.4 10 Este 25 Este 0 -- -- 37
2017-09-12 19:00:00 25.8 14 Este 32 Este 0 -- -- 32
2017-09-12 18:00:00 27.7 14 Nordeste 33 Este 0 -- -- 30
2017-09-12 17:00:00 27.4 14 Este 37 Este 0 -- -- 30
2017-09-12 16:00:00 29.9 13 Este 32 Sudeste 0 -- -- 26
2017-09-12 15:00:00 31.4 12 Este 30 Norte 0 -- -- 22
2017-09-12 14:00:00 33.5 2 Sudoeste 17 Sur 0 -- -- 18
2017-09-12 13:00:00 32.3 0 Calma 15 Norte 0 -- -- 21
2017-09-12 12:00:00 30.8 4 Norte 16 Noroeste 0 -- -- 27
2017-09-12 11:00:00 28.7 6 Noroeste 17 Norte 0 -- -- 31
2017-09-12 10:00:00 25.8 3 Noroeste 11 Noroeste 0 -- -- 33
2017-09-12 09:00:00 21.9 5 Noroeste 17 Norte 0 -- -- 36
2017-09-12 08:00:00 21.1 5 Noroeste 17 Noroeste 0 -- -- 37
2017-09-12 07:00:00 20 4 Noroeste 14 Noroeste 0 -- -- 37
2017-09-12 06:00:00 21.5 4 Noroeste 15 Noroeste 0 -- -- 36
2017-09-12 05:00:00 21.8 4 Noroeste 16 Norte 0 -- -- 35
2017-09-12 04:00:00 21.6 4 Norte 11 Norte 0 -- -- 35
2017-09-12 03:00:00 21.9 3 Noroeste 14 Noroeste 0 -- -- 35
2017-09-12 02:00:00 22.2 5 Noroeste 17 Noroeste 0 -- -- 35
2017-09-12 01:00:00 22.7 6 Norte 14 Norte 0 -- -- 35
2017-09-12 00:00:00 23 4 Norte 13 Norte 0 -- -- 34
2017-09-11 23:00:00 23.8 6 Oeste 13 Oeste 0 -- -- 35
2017-09-11 22:00:00 23.6 4 Noroeste 11 Norte 0 -- -- 36
2017-09-11 21:00:00 23.5 4 Noroeste 9 Este 0 -- -- 37
2017-09-11 20:00:00 24.8 4 Este 20 Este 0 -- -- 35
2017-09-11 19:00:00 26.2 9 Este 26 Este 0 -- -- 31
2017-09-11 18:00:00 27.3 14 Este 30 Este 0 -- -- 29
2017-09-11 17:00:00 27.5 14 Nordeste 29 Nordeste 0 -- -- 27
2017-09-11 16:00:00 29.2 12 Nordeste 24 Norte 0 -- -- 24
2017-09-11 15:00:00 30 9 Nordeste 23 Este 0 -- -- 22
2017-09-11 14:00:00 30.3 4 Nordeste 13 Norte 0 -- -- 21
2017-09-11 13:00:00 29.1 5 Nordeste 11 Nordeste 0 -- -- 22
2017-09-11 12:00:00 27.9 2 Nordeste 9 Este 0 -- -- 26
2017-09-11 11:00:00 25.6 2 Norte 14 Noroeste 0 -- -- 30
2017-09-11 10:00:00 22.8 3 Noroeste 10 Noroeste 0 -- -- 31
2017-09-11 09:00:00 20.5 4 Noroeste 15 Noroeste 0 -- -- 31
2017-09-11 08:00:00 15.2 8 Noroeste 13 Noroeste 0 -- -- 35
2017-09-11 07:00:00 17.3 4 Norte 17 Norte 0 -- -- 33
2017-09-11 06:00:00 17 6 Norte 19 Noroeste 0 -- -- 34
2017-09-11 05:00:00 17.3 8 Norte 22 Noroeste 0 -- -- 34
2017-09-11 04:00:00 17.2 6 Noroeste 14 Noroeste 0 -- -- 34
2017-09-11 03:00:00 18.1 6 Noroeste 18 Norte 0 -- -- 34
2017-09-11 02:00:00 18.1 7 Noroeste 20 Noroeste 0 -- -- 34
2017-09-11 01:00:00 18.6 6 Noroeste 15 Noroeste 0 -- -- 35
2017-09-11 00:00:00 19 8 Noroeste 16 Noroeste 0 -- -- 34
2017-09-10 23:00:00 20.5 4 Noroeste 18 Noroeste 0 -- -- 32
2017-09-10 22:00:00 20.5 3 Noroeste 15 Noroeste 0 -- -- 32
2017-09-10 21:00:00 19.7 2 Noroeste 13 Nordeste 0 -- -- 43
2017-09-10 20:00:00 20.7 6 Nordeste 21 Nordeste 0 -- -- 41
2017-09-10 19:00:00 24.1 3 Nordeste 29 Este 0 -- -- 32
2017-09-10 18:00:00 25.1 5 Nordeste 20 Nordeste 0 -- -- 23
2017-09-10 17:00:00 26.4 6 Norte 27 Noroeste 0 -- -- 21
2017-09-10 16:00:00 27.4 6 Noroeste 26 Noroeste 0 -- -- 22
2017-09-10 15:00:00 26.4 10 Norte 30 Noroeste 0 -- -- 24
2017-09-10 14:00:00 25.4 9 Norte 27 Noroeste 0 -- -- 25
2017-09-10 13:00:00 23.9 9 Norte 20 Noroeste 0 -- -- 29
2017-09-10 12:00:00 23.2 6 Norte 20 Norte 0 -- -- 33
2017-09-10 11:00:00 21.1 11 Sur 24 Sudoeste 0 -- -- 35
2017-09-10 10:00:00 19.9 8 Sur 18 Sudoeste 0 -- -- 38
2017-09-10 09:00:00 16.5 4 Sur 15 Sudoeste 0 -- -- 41
2017-09-10 08:00:00 15.7 0 Calma 16 Sur 0 -- -- 42
2017-09-10 07:00:00 16.3 6 Sudoeste 16 Sudoeste 0 -- -- 41
2017-09-10 06:00:00 16.6 4 Sur 21 Sudoeste 0 -- -- 43
2017-09-10 05:00:00 17.3 9 Sur 19 Sur 0 -- -- 43
2017-09-10 04:00:00 18.2 5 Sur 19 Norte 0 -- -- 42
2017-09-10 03:00:00 19.3 8 Sudoeste 30 Sur 0 -- -- 42
2017-09-10 02:00:00 20.3 5 Sudoeste 19 Sur 0 -- -- 46
2017-09-10 01:00:00 20.2 5 Sudoeste 19 Sur 0 -- -- 49
2017-09-10 00:00:00 21.1 8 Sudoeste 20 Sur 0 -- -- 45
2017-09-09 23:00:00 21.4 6 Sudoeste 19 Sur 0 -- -- 42
2017-09-09 22:00:00 22 7 Sudoeste 26 Sudoeste 0 -- -- 39
2017-09-09 21:00:00 22.8 11 Sudoeste 27 Sudoeste 0 -- -- 33
2017-09-09 20:00:00 24.1 7 Sudoeste 25 Sudoeste 0 -- -- 27
2017-09-09 19:00:00 25.9 11 Noroeste 24 Norte 0 -- -- 23
2017-09-09 18:00:00 26.7 8 Norte 27 Noroeste 0 -- -- 21
2017-09-09 17:00:00 28.2 8 Norte 27 Noroeste 0 -- -- 18
2017-09-09 16:00:00 29.6 8 Noroeste 23 Noroeste 0 -- -- 16
2017-09-09 15:00:00 28.1 6 Norte 25 Norte 0 -- -- 14
2017-09-09 14:00:00 28.4 4 Norte 19 Noroeste 0 -- -- 14
2017-09-09 13:00:00 27.6 7 Norte 28 Noroeste 0 -- -- 15
2017-09-09 12:00:00 27.6 10 Noroeste 24 Norte 0 -- -- 17
2017-09-09 11:00:00 25.3 9 Norte 27 Noroeste 0 -- -- 24
2017-09-09 10:00:00 24.5 5 Noroeste 18 Noroeste 0 -- -- 27
2017-09-09 09:00:00 22 5 Noroeste 18 Norte 0 -- -- 29
2017-09-09 08:00:00 19.2 6 Noroeste 18 Noroeste 0 -- -- 32
2017-09-09 07:00:00 20.5 6 Noroeste 17 Norte 0 -- -- 33
2017-09-09 06:00:00 20.5 5 Noroeste 17 Oeste 0 -- -- 32
2017-09-09 05:00:00 21.7 9 Noroeste 21 Oeste 0 -- -- 32
2017-09-09 04:00:00 21.8 7 Noroeste 20 Noroeste 0 -- -- 33
2017-09-09 03:00:00 21.6 6 Noroeste 14 Noroeste 0 -- -- 35
2017-09-09 02:00:00 22 3 Noroeste 10 Norte 0 -- -- 38
2017-09-09 01:00:00 22.3 5 Noroeste 11 Noroeste 0 -- -- 36
2017-09-09 00:00:00 24.6 5 Noroeste 12 Noroeste 0 -- -- 36
2017-09-08 23:00:00 22.7 3 Noroeste 9 Noroeste 0 -- -- 61
2017-09-08 22:00:00 22.9 0 Calma 5 Oeste 0 -- -- 64
2017-09-08 21:00:00 23.9 2 Nordeste 13 Este 0 -- -- 65
2017-09-08 20:00:00 24.5 8 Este 19 Este 0 -- -- 61
2017-09-08 19:00:00 25.2 13 Nordeste 28 Nordeste 0 -- -- 57
2017-09-08 18:00:00 26.4 13 Nordeste 32 Nordeste 0 -- -- 48
2017-09-08 17:00:00 27.1 17 Nordeste 30 Este 0 -- -- 44
2017-09-08 16:00:00 27.8 15 Nordeste 42 Nordeste 0 -- -- 40
2017-09-08 15:00:00 28.6 14 Nordeste 33 Este 0 -- -- 39
2017-09-08 14:00:00 28.1 14 Nordeste 34 Nordeste 0 -- -- 38
2017-09-08 13:00:00 27.5 11 Nordeste 22 Este 0 -- -- 39
2017-09-08 12:00:00 26.3 9 Nordeste 18 Este 0 -- -- 43
2017-09-08 11:00:00 24.2 4 Nordeste 9 Este 0 -- -- 48
2017-09-08 10:00:00 21.5 0 Calma 4 Nordeste 0 -- -- 68
2017-09-08 09:00:00 18.7 0 Calma 4 Noroeste 0 -- -- 73
2017-09-08 08:00:00 15.5 0 Calma 0 Calma 0 -- -- 91
2017-09-08 07:00:00 15.9 0 Calma 0 Calma 0 -- -- 94
2017-09-08 06:00:00 16.3 0 Calma 4 Sur 0 -- -- 95
2017-09-08 05:00:00 17.1 0 Calma 8 Sudoeste 0 -- -- 95
2017-09-08 04:00:00 17.9 0 Calma 5 Sur 0 -- -- 93
2017-09-08 03:00:00 17.8 0 Calma 6 Nordeste 0 -- -- 93
2017-09-08 02:00:00 18.9 3 Nordeste 8 Este 0 -- -- 86
2017-09-08 01:00:00 19.7 0 Calma 6 Noroeste 0 -- -- 69
2017-09-08 00:00:00 20.7 0 Calma 6 Norte 0 -- -- 75
2017-09-07 23:00:00 20.7 0 Calma 4 Oeste 0 -- -- 80
2017-09-07 22:00:00 21 3 Este 14 Nordeste 0 -- -- 77
2017-09-07 21:00:00 21.8 6 Este 22 Nordeste 0 -- -- 72
2017-09-07 20:00:00 23.4 12 Este 25 Este 0 -- -- 63
2017-09-07 19:00:00 24.7 12 Nordeste 30 Nordeste 0 -- -- 56
2017-09-07 18:00:00 25.9 13 Nordeste 31 Este 0 -- -- 53
2017-09-07 17:00:00 26.8 15 Nordeste 32 Este 0 -- -- 49
2017-09-07 16:00:00 27.9 13 Nordeste 32 Este 0 -- -- 45
2017-09-07 15:00:00 27.5 13 Nordeste 30 Este 0 -- -- 42
2017-09-07 14:00:00 27.3 13 Nordeste 30 Nordeste 0 -- -- 41
2017-09-07 13:00:00 26.9 13 Nordeste 30 Este 0 -- -- 43
2017-09-07 12:00:00 25.2 13 Nordeste 27 Nordeste 0 -- -- 49
2017-09-07 11:00:00 25.4 11 Nordeste 22 Este 0 -- -- 45
2017-09-07 10:00:00 22.8 2 Norte 6 Este 0 -- -- 57
2017-09-07 09:00:00 19.3 0 Calma 7 Norte 0 -- -- 68
2017-09-07 08:00:00 17.5 0 Calma 8 Oeste 0 -- -- 75
2017-09-07 07:00:00 18.1 5 Noroeste 9 Noroeste 0 -- -- 72
2017-09-07 06:00:00 19.2 0 Calma 10 Oeste 0 -- -- 72
2017-09-07 05:00:00 19.3 0 Calma 7 Oeste 0 -- -- 71
2017-09-07 04:00:00 19.2 3 Oeste 6 Oeste 0 -- -- 72
2017-09-07 03:00:00 19.9 0 Calma 8 Oeste 0 -- -- 68
2017-09-07 02:00:00 20.2 0 Calma 5 Noroeste 0 -- -- 68
2017-09-07 01:00:00 20.9 0 Calma 5 Noroeste 0 -- -- 67
2017-09-07 00:00:00 21.2 0 Calma 5 Nordeste 0 -- -- 67
2017-09-06 23:00:00 21.4 5 Nordeste 19 Nordeste 0 -- -- 68
2017-09-06 22:00:00 22.3 11 Este 29 Este 0 -- -- 65
2017-09-06 21:00:00 23.4 14 Este 31 Nordeste 0 -- -- 55
2017-09-06 20:00:00 24.7 15 Nordeste 30 Nordeste 0 -- -- 51
2017-09-06 19:00:00 26.1 17 Este 35 Este 0 -- -- 47
2017-09-06 18:00:00 26.9 16 Este 38 Este 0 -- -- 46
2017-09-06 17:00:00 27.9 15 Este 34 Este 0 -- -- 41
2017-09-06 16:00:00 28.6 15 Este 35 Este 0 -- -- 37
2017-09-06 15:00:00 29.1 15 Este 29 Sudeste 0 -- -- 35
2017-09-06 14:00:00 29.2 14 Este 31 Este 0 -- -- 35
2017-09-06 13:00:00 28.2 11 Este 26 Este 0 -- -- 36
2017-09-06 12:00:00 28.4 8 Este 23 Sudeste 0 -- -- 39
2017-09-06 11:00:00 26.4 8 Este 19 Este 0 -- -- 44
2017-09-06 10:00:00 24.7 2 Nordeste 6 Nordeste 0 -- -- 50
2017-09-06 09:00:00 22.2 0 Calma 5 Norte 0 -- -- 56
2017-09-06 08:00:00 18.2 2 Noroeste 10 Noroeste 0 -- -- 64
2017-09-06 07:00:00 19.2 0 Calma 11 Noroeste 0 -- -- 61
2017-09-06 06:00:00 18 5 Noroeste 11 Noroeste 0 -- -- 64
2017-09-06 05:00:00 18.5 3 Noroeste 9 Oeste 0 -- -- 64
2017-09-06 04:00:00 19 0 Calma 5 Oeste 0 -- -- 62
2017-09-06 03:00:00 19.9 0 Calma 12 Noroeste 0 -- -- 57
2017-09-06 02:00:00 20.3 0 Calma 8 Sudoeste 0 -- -- 57
2017-09-06 01:00:00 20.8 0 Calma 8 Oeste 0 -- -- 56
2017-09-06 00:00:00 21.3 0 Calma 10 Oeste 0 -- -- 55
2017-09-05 23:00:00 21.6 5 Norte 11 Nordeste 0 -- -- 51
2017-09-05 22:00:00 22.1 7 Nordeste 21 Este 0 -- -- 53
2017-09-05 21:00:00 23.4 13 Este 31 Este 0 -- -- 48
2017-09-05 20:00:00 24.7 15 Este 31 Este 0 -- -- 45
2017-09-05 19:00:00 26.3 13 Nordeste 31 Este 0 -- -- 42
2017-09-05 18:00:00 26.7 15 Nordeste 34 Este 0 -- -- 41
2017-09-05 17:00:00 27.8 14 Nordeste 30 Este 0 -- -- 38
2017-09-05 16:00:00 28.1 16 Este 34 Este 0 -- -- 38
2017-09-05 15:00:00 28.6 16 Este 37 Nordeste 0 -- -- 38
2017-09-05 14:00:00 28.2 17 Nordeste 39 Este 0 -- -- 38
2017-09-05 13:00:00 27.5 13 Este 34 Este 0 -- -- 39
2017-09-05 12:00:00 26.4 15 Nordeste 31 Nordeste 0 -- -- 42
2017-09-05 11:00:00 24.3 12 Este 27 Nordeste 0 -- -- 53
2017-09-05 10:00:00 22.8 11 Este 21 Este 0 -- -- 64
2017-09-05 09:00:00 19.6 6 Este 19 Este 0 -- -- 82
2017-09-05 08:00:00 16.7 0 Calma 5 Norte 0 -- -- 70
2017-09-05 07:00:00 17.6 0 Calma 4 Este 0 -- -- 64
2017-09-05 06:00:00 17.9 0 Calma 9 Oeste 0 -- -- 61
2017-09-05 05:00:00 17.8 0 Calma 5 Norte 0 -- -- 57
2017-09-05 04:00:00 18.8 0 Calma 4 Nordeste 0 -- -- 53
2017-09-05 03:00:00 19.5 0 Calma 5 Noroeste 0 -- -- 51
2017-09-05 02:00:00 20.4 0 Calma 8 Noroeste 0 -- -- 48
2017-09-05 01:00:00 21.2 5 Noroeste 12 Norte 0 -- -- 44
2017-09-05 00:00:00 22.8 3 Noroeste 11 Norte 0 -- -- 38
2017-09-04 23:00:00 23.8 3 Noroeste 14 Norte 0 -- -- 38
2017-09-04 22:00:00 24.1 0 Calma 9 Nordeste 0 -- -- 50
2017-09-04 21:00:00 24.7 5 Sudeste 26 Nordeste 0 -- -- 53
2017-09-04 20:00:00 26.4 10 Este 26 Nordeste 0 -- -- 48
2017-09-04 19:00:00 29.5 7 Nordeste 23 Sudeste 0 -- -- 35
2017-09-04 18:00:00 32.4 3 Sudoeste 23 Sur 0 -- -- 20
2017-09-04 17:00:00 32.4 4 Sudoeste 18 Sudoeste 0 -- -- 20
2017-09-04 16:00:00 32.9 3 Sudoeste 22 Sur 0 -- -- 20
2017-09-04 15:00:00 33.1 4 Norte 18 Norte 0 -- -- 22
2017-09-04 14:00:00 32.8 0 Calma 26 Noroeste 0 -- -- 26
2017-09-04 13:00:00 30.8 9 Noroeste 22 Norte 0 -- -- 29
2017-09-04 12:00:00 29.6 10 Norte 21 Noroeste 0 -- -- 34
2017-09-04 11:00:00 29.1 5 Noroeste 14 Noroeste 0 -- -- 39
2017-09-04 10:00:00 26.4 5 Noroeste 12 Norte 0 -- -- 45
2017-09-04 09:00:00 23.4 4 Norte 15 Noroeste 0 -- -- 50
2017-09-04 08:00:00 20 4 Noroeste 14 Norte 0 -- -- 56
2017-09-04 07:00:00 19.8 6 Norte 16 Oeste 0 -- -- 56
2017-09-04 06:00:00 21.1 6 Noroeste 16 Noroeste 0 -- -- 52
2017-09-04 05:00:00 22.3 5 Noroeste 16 Oeste 0 -- -- 50
2017-09-04 04:00:00 22.1 3 Noroeste 12 Noroeste 0 -- -- 51
2017-09-04 03:00:00 21.9 3 Norte 13 Noroeste 0 -- -- 52
2017-09-04 02:00:00 22.5 4 Noroeste 11 Noroeste 0 -- -- 50
2017-09-04 01:00:00 22.5 6 Noroeste 12 Noroeste 0 -- -- 52
2017-09-04 00:00:00 23.3 5 Norte 12 Oeste 0 -- -- 53
2017-09-03 23:00:00 23.6 3 Noroeste 8 Noroeste 0 -- -- 57
2017-09-03 22:00:00 23.4 2 Norte 8 Noroeste 0 -- -- 62
2017-09-03 21:00:00 23.4 2 Norte 15 Nordeste 0 -- -- 61
2017-09-03 20:00:00 24 7 Nordeste 19 Este 0 -- -- 59
2017-09-03 19:00:00 25.6 12 Este 25 Este 0 -- -- 49
2017-09-03 18:00:00 26.3 11 Nordeste 29 Este 0 -- -- 42
2017-09-03 17:00:00 27 12 Nordeste 25 Nordeste 0 -- -- 41
2017-09-03 16:00:00 28.5 10 Nordeste 28 Este 0 -- -- 41
2017-09-03 15:00:00 28.6 12 Nordeste 27 Este 0 -- -- 41
2017-09-03 14:00:00 26.8 12 Nordeste 30 Este 0 -- -- 44
2017-09-03 13:00:00 27.1 7 Este 16 Este 0 -- -- 45
2017-09-03 12:00:00 26.5 5 Este 13 Nordeste 0 -- -- 44
2017-09-03 11:00:00 24.5 3 Nordeste 10 Este 0 -- -- 52
2017-09-03 10:00:00 23.1 0 Calma 6 Este 0 -- -- 65
2017-09-03 09:00:00 20.4 0 Calma 3 Noroeste 0 -- -- 73
2017-09-03 08:00:00 17.7 0 Calma 4 Norte 0 -- -- 86
2017-09-03 07:00:00 17.4 0 Calma 6 Noroeste 0 -- -- 89
2017-09-03 06:00:00 17.8 0 Calma 6 Nordeste 0 -- -- 83
2017-09-03 05:00:00 18.5 0 Calma 6 Norte 0 -- -- 79
2017-09-03 04:00:00 18.7 0 Calma 9 Noroeste 0 -- -- 78
2017-09-03 03:00:00 18.6 0 Calma 15 Noroeste 0 -- -- 85
2017-09-03 02:00:00 19.2 2 Noroeste 8 Norte 0 -- -- 83
2017-09-03 01:00:00 20.1 0 Calma 6 Nordeste 0 -- -- 86
2017-09-03 00:00:00 20.1 3 Nordeste 10 Este 0 -- -- 88
2017-09-02 23:00:00 19.7 5 Nordeste 14 Este 0 -- -- 90
2017-09-02 22:00:00 20.4 8 Este 18 Nordeste 0 -- -- 86
2017-09-02 21:00:00 20.8 6 Nordeste 32 Este 0 -- -- 83
2017-09-02 20:00:00 21.7 16 Este 30 Nordeste 0 -- -- 75
2017-09-02 19:00:00 23.5 15 Este 30 Este 0 -- -- 63
2017-09-02 18:00:00 24.3 15 Este 30 Este 0 -- -- 57
2017-09-02 17:00:00 25.1 14 Nordeste 30 Este 0 -- -- 54
2017-09-02 16:00:00 26 14 Nordeste 30 Este 0 -- -- 50
2017-09-02 15:00:00 26.1 11 Este 26 Este 0 -- -- 50
2017-09-02 14:00:00 25.2 12 Nordeste 25 Nordeste 0 -- -- 51
2017-09-02 13:00:00 23.9 11 Este 26 Nordeste 0 -- -- 60
2017-09-02 12:00:00 22 15 Este 26 Este 0 -- -- 68
2017-09-02 11:00:00 21.1 12 Este 24 Nordeste 0 -- -- 74
2017-09-02 10:00:00 20.2 10 Nordeste 23 Este 0 -- -- 78
2017-09-02 09:00:00 18.9 7 Este 15 Este 0 -- -- 86
2017-09-02 08:00:00 18.5 2 Este 6 Este 0 -- -- 92
2017-09-02 07:00:00 18.6 0 Calma 5 Oeste 0 -- -- 87
2017-09-02 06:00:00 18.6 0 Calma 7 Oeste 0 -- -- 85
2017-09-02 05:00:00 19.2 0 Calma 4 Este 0 -- -- 86
2017-09-02 04:00:00 19.3 0 Calma 9 Norte 0 -- -- 82
2017-09-02 03:00:00 19.5 4 Este 10 Norte 0 -- -- 82
2017-09-02 02:00:00 18.7 3 Nordeste 9 Nordeste 0 -- -- 88
2017-09-02 01:00:00 19.4 4 Nordeste 15 Este 0 -- -- 86
2017-09-02 00:00:00 19.5 3 Nordeste 14 Nordeste 0 -- -- 82
2017-09-01 23:00:00 20.1 6 Nordeste 24 Este 0 -- -- 79
2017-09-01 22:00:00 20.5 12 Este 27 Este 0 -- -- 74
2017-09-01 21:00:00 21 14 Este 38 Este 0 -- -- 77
2017-09-01 20:00:00 22.2 17 Este 36 Este 0 -- -- 70
2017-09-01 19:00:00 24.4 15 Nordeste 37 Este 0 -- -- 58
2017-09-01 18:00:00 25.9 14 Nordeste 33 Este 0 -- -- 49
2017-09-01 17:00:00 26.3 16 Nordeste 36 Nordeste 0 -- -- 46
2017-09-01 16:00:00 26.6 15 Nordeste 33 Este 0 -- -- 43
2017-09-01 15:00:00 27.3 14 Nordeste 30 Este 0 -- -- 42
2017-09-01 14:00:00 26.9 11 Nordeste 31 Nordeste 0 -- -- 41
2017-09-01 13:00:00 26 13 Nordeste 26 Este 0 -- -- 42
2017-09-01 12:00:00 25.2 11 Nordeste 29 Este 0 -- -- 43
2017-09-01 11:00:00 23.3 14 Este 26 Este 0 -- -- 49
2017-09-01 10:00:00 22 2 Nordeste 7 Nordeste 0 -- -- 59
2017-09-01 09:00:00 19.7 0 Calma 8 Oeste 0 -- -- 68
2017-09-01 08:00:00 16 6 Noroeste 10 Noroeste 0 -- -- 81
2017-09-01 07:00:00 16.4 0 Calma 9 Sudoeste 0 -- -- 78
2017-09-01 06:00:00 16.5 4 Noroeste 7 Noroeste 0 -- -- 86
2017-09-01 05:00:00 17 0 Calma 6 Noroeste 0 -- -- 82
2017-09-01 04:00:00 17 0 Calma 5 Oeste 0 -- -- 83
2017-09-01 03:00:00 17.6 0 Calma 7 Noroeste 0 -- -- 83
2017-09-01 02:00:00 18.5 0 Calma 8 Nordeste 0 -- -- 78
2017-09-01 01:00:00 18.6 2 Norte 6 Noroeste 0 -- -- 78
2017-09-01 00:00:00 19.1 2 Nordeste 9 Nordeste 0 -- -- 75
2017-08-31 23:00:00 19.6 5 Nordeste 21 Este 0 -- -- 73
2017-08-31 22:00:00 20.7 11 Este 29 Nordeste 0 -- -- 66
2017-08-31 21:00:00 22.3 14 Este 27 Nordeste 0 -- -- 56
2017-08-31 20:00:00 24 10 Nordeste 30 Nordeste 0 -- -- 52
2017-08-31 19:00:00 25.3 13 Nordeste 31 Nordeste 0 -- -- 47
2017-08-31 18:00:00 25.7 17 Nordeste 36 Este 0 -- -- 45
2017-08-31 17:00:00 26.4 15 Nordeste 32 Este 0 -- -- 42
2017-08-31 16:00:00 27.1 12 Este 31 Sudeste 0 -- -- 38
2017-08-31 15:00:00 26.9 14 Nordeste 31 Este 0 -- -- 38
2017-08-31 14:00:00 26.1 17 Este 33 Nordeste 0 -- -- 39
2017-08-31 13:00:00 26 14 Nordeste 28 Este 0 -- -- 39
2017-08-31 12:00:00 25.1 11 Este 22 Este 0 -- -- 41
2017-08-31 11:00:00 23.6 2 Nordeste 7 Norte 0 -- -- 45
2017-08-31 10:00:00 22.3 2 Norte 7 Sur 0 -- -- 52
2017-08-31 09:00:00 18.1 2 Sudoeste 10 Oeste 0 -- -- 69
2017-08-31 08:00:00 16 7 Oeste 11 Oeste 0 -- -- 78
2017-08-31 07:00:00 17.3 5 Oeste 7 Sur 0 -- -- 70
2017-08-31 06:00:00 16.1 5 Oeste 15 Noroeste 0 -- -- 78
2017-08-31 05:00:00 16 5 Noroeste 9 Norte 0 -- -- 75
2017-08-31 04:00:00 17.2 0 Calma 13 Oeste 0 -- -- 70
2017-08-31 03:00:00 17.6 6 Noroeste 11 Oeste 0 -- -- 68
2017-08-31 02:00:00 18.1 5 Oeste 12 Oeste 0 -- -- 68
2017-08-31 01:00:00 17.6 0 Calma 9 Noroeste 0 -- -- 68
2017-08-31 00:00:00 17.6 0 Calma 8 Sur 0 -- -- 68
2017-08-30 23:00:00 18.3 2 Oeste 14 Noroeste 0 -- -- 66
2017-08-30 22:00:00 18.2 0 Calma 10 Oeste 0 -- -- 70
2017-08-30 21:00:00 18.9 2 Noroeste 10 Sur 0 -- -- 70
2017-08-30 20:00:00 19 4 Sur 14 Sur 0 -- -- 77
2017-08-30 19:00:00 19.3 0 Calma 12 Norte 0 -- -- 72
2017-08-30 18:00:00 18.9 5 Sudeste 24 Este 0 -- -- 75
2017-08-30 17:00:00 18.2 2 Norte 15 Nordeste 0 -- -- 79
2017-08-30 16:00:00 17.2 4 Este 19 Nordeste 0 -- -- 89
2017-08-30 15:00:00 15.6 8 Nordeste 18 Este 1 -- -- 95
2017-08-30 14:00:00 15.6 0 Calma 11 Noroeste 1.6 -- -- 94
2017-08-30 13:00:00 15.7 5 Noroeste 14 Noroeste 0.8 -- -- 92
2017-08-30 12:00:00 15.8 0 Calma 15 Noroeste 1.2 -- -- 90
2017-08-30 11:00:00 16.4 2 Noroeste 15 Sur 0.1 -- -- 81
2017-08-30 10:00:00 16.4 3 Oeste 18 Sur 0 -- -- 79
2017-08-30 09:00:00 16.5 4 Sudoeste 13 Sur 0 -- -- 79
2017-08-30 08:00:00 16.1 3 Sur 9 Sur 0 -- -- 82
2017-08-30 07:00:00 15.9 0 Calma 7 Noroeste 0 -- -- 79
2017-08-30 06:00:00 15.7 3 Noroeste 11 Oeste 0 -- -- 86
2017-08-30 05:00:00 15.4 5 Noroeste 12 Oeste 0 -- -- 87
2017-08-30 04:00:00 15.1 0 Calma 6 Este 0 -- -- 93
2017-08-30 03:00:00 15.2 0 Calma 5 Norte 0 -- -- 94
2017-08-30 02:00:00 15.1 0 Calma 6 Norte 0 -- -- 94
2017-08-30 01:00:00 14.9 0 Calma 9 Nordeste 0 -- -- 95
2017-08-30 00:00:00 15.1 5 Nordeste 21 Nordeste 0 -- -- 95
2017-08-29 23:00:00 15.5 8 Nordeste 34 Este 0 -- -- 89
2017-08-29 22:00:00 16.8 16 Este 34 Este 0 -- -- 81
2017-08-29 21:00:00 17.4 7 Este 32 Este 0 -- -- 71
2017-08-29 20:00:00 18 11 Este 23 Este 0 -- -- 67
2017-08-29 19:00:00 18.1 9 Este 19 Sudeste 0 -- -- 79
2017-08-29 18:00:00 17.7 6 Nordeste 27 Nordeste 0.1 -- -- 87
2017-08-29 17:00:00 16.6 8 Nordeste 20 Nordeste 2.3 -- -- 82
2017-08-29 16:00:00 16.9 6 Nordeste 19 Nordeste 0.4 -- -- 86
2017-08-29 15:00:00 16.8 8 Nordeste 29 Este 0.8 -- -- 95
2017-08-29 14:00:00 18.2 12 Este 31 Este 0 -- -- 85
2017-08-29 13:00:00 20.6 11 Nordeste 27 Este 0 -- -- 70
2017-08-29 12:00:00 22 10 Este 21 Este 0 -- -- 50
2017-08-29 11:00:00 20.2 4 Nordeste 9 Nordeste 0 -- -- 61
2017-08-29 10:00:00 19.3 0 Calma 8 Noroeste 0 -- -- 69
2017-08-29 09:00:00 16.8 0 Calma 10 Oeste 0 -- -- 86
2017-08-29 08:00:00 17.1 0 Calma 9 Noroeste 0 -- -- 87
2017-08-29 07:00:00 17.2 2 Noroeste 8 Noroeste 0 -- -- 86
2017-08-29 06:00:00 17.3 0 Calma 9 Oeste 0 -- -- 90
2017-08-29 05:00:00 18 2 Noroeste 19 Este 0 -- -- 87
2017-08-29 04:00:00 18.2 10 Sudeste 28 Este 0 -- -- 84
2017-08-29 03:00:00 19.1 11 Este 26 Este 0 -- -- 76
2017-08-29 02:00:00 19.6 2 Sur 10 Sudoeste 0 -- -- 72
2017-08-29 01:00:00 19.8 3 Oeste 12 Sur 0 -- -- 68
2017-08-29 00:00:00 20.5 0 Calma 12 Nordeste 0 -- -- 64
2017-08-28 23:00:00 20.7 6 Este 24 Este 0 -- -- 64
2017-08-28 22:00:00 21.3 7 Este 24 Este 0 -- -- 62
2017-08-28 21:00:00 21.8 9 Sudeste 22 Este 0 -- -- 60
2017-08-28 20:00:00 22.3 11 Este 29 Nordeste 0 -- -- 61
2017-08-28 19:00:00 24.4 2 Nordeste 29 Este 0.3 -- -- 53
2017-08-28 18:00:00 24.7 9 Nordeste 31 Este 0 -- -- 45
2017-08-28 17:00:00 26.4 10 Este 21 Este 0 -- -- 43
2017-08-28 16:00:00 24.5 8 Nordeste 29 Sudeste 0 -- -- 47
2017-08-28 15:00:00 22.4 14 Sudeste 32 Sudeste 0 -- -- 56
2017-08-28 14:00:00 22.5 6 Nordeste 31 Sudeste 0 -- -- 54
2017-08-28 13:00:00 22 13 Este 36 Este 0 -- -- 56
2017-08-28 12:00:00 21 20 Nordeste 44 Sudeste 0 -- -- 63
2017-08-28 11:00:00 21.7 12 Este 41 Sur 0 -- -- 57
2017-08-28 10:00:00 23.9 17 Sur 35 Sudoeste 0 -- -- 47
2017-08-28 09:00:00 25.4 11 Sudeste 32 Este 0 -- -- 46
2017-08-28 08:00:00 22 17 Este 33 Este 0 -- -- 66
2017-08-28 07:00:00 21.4 15 Este 31 Este 0 -- -- 72
2017-08-28 06:00:00 22.2 11 Nordeste 22 Este 0 -- -- 64
2017-08-28 05:00:00 21.6 3 Nordeste 8 Sudoeste 0 -- -- 76
2017-08-28 04:00:00 21.8 3 Sur 21 Este 0 -- -- 83
2017-08-28 03:00:00 21.3 10 Este 20 Nordeste 0 -- -- 88
2017-08-28 02:00:00 21.5 13 Este 26 Este 0 -- -- 90
2017-08-28 01:00:00 22.3 12 Este 21 Este 0 -- -- 82
2017-08-28 00:00:00 23.2 8 Nordeste 22 Nordeste 0 -- -- 75
2017-08-27 23:00:00 24.7 9 Nordeste 22 Este 0 -- -- 60
2017-08-27 22:00:00 25.6 8 Nordeste 25 Nordeste 0 -- -- 49
2017-08-27 21:00:00 26.7 9 Nordeste 19 Este 0 -- -- 44
2017-08-27 20:00:00 27.5 5 Nordeste 13 Este 0 -- -- 43
2017-08-27 19:00:00 27.6 3 Noroeste 13 Norte 0 -- -- 42
2017-08-27 18:00:00 28.2 5 Norte 19 Sudoeste 0 -- -- 42
2017-08-27 17:00:00 28.7 10 Sudoeste 29 Nordeste 0 -- -- 41
2017-08-27 16:00:00 30.3 13 Este 26 Nordeste 0 -- -- 39
2017-08-27 15:00:00 29.9 9 Sudeste 23 Sudeste 0 -- -- 39
2017-08-27 14:00:00 29.6 8 Este 32 Este 0 -- -- 40
2017-08-27 13:00:00 29.2 14 Nordeste 31 Este 0 -- -- 41
2017-08-27 12:00:00 28.3 12 Nordeste 26 Este 0 -- -- 41
2017-08-27 11:00:00 26.6 9 Nordeste 29 Este 0 -- -- 49
2017-08-27 10:00:00 25.9 10 Nordeste 23 Nordeste 0 -- -- 50
2017-08-27 09:00:00 23.2 3 Norte 13 Oeste 0 -- -- 57
2017-08-27 08:00:00 22.8 0 Calma 9 Sudoeste 0 -- -- 61
2017-08-27 07:00:00 22.3 0 Calma 10 Oeste 0 -- -- 65
2017-08-27 06:00:00 22.3 2 Noroeste 17 Este 0 -- -- 72
2017-08-27 05:00:00 22.3 9 Nordeste 24 Este 0 -- -- 74
2017-08-27 04:00:00 23.2 6 Nordeste 28 Nordeste 0 -- -- 68
2017-08-27 03:00:00 23.2 13 Este 30 Nordeste 0 -- -- 69
2017-08-27 02:00:00 23.6 13 Nordeste 22 Nordeste 0 -- -- 60
2017-08-27 01:00:00 24.1 4 Este 15 Este 0 -- -- 53
2017-08-27 00:00:00 24.8 10 Este 22 Este 0 -- -- 49
2017-08-26 23:00:00 25.9 9 Nordeste 32 Este 0 -- -- 49
2017-08-26 22:00:00 26.7 14 Este 26 Este 0 -- -- 43
2017-08-26 21:00:00 27.5 9 Nordeste 23 Este 0 -- -- 40
2017-08-26 20:00:00 29 9 Nordeste 34 Sudeste 0 -- -- 38
2017-08-26 19:00:00 29.6 16 Este 36 Nordeste 0 -- -- 40
2017-08-26 18:00:00 31.4 12 Este 38 Este 0 -- -- 39
2017-08-26 17:00:00 30.6 16 Este 36 Este 0 -- -- 38
2017-08-26 16:00:00 30.9 16 Este 41 Nordeste 0 -- -- 34
2017-08-26 15:00:00 31.8 16 Nordeste 40 Nordeste 0 -- -- 33
2017-08-26 14:00:00 31.7 21 Nordeste 37 Este 0 -- -- 31
2017-08-26 13:00:00 31.6 18 Este 32 Nordeste 0 -- -- 31
2017-08-26 12:00:00 30 15 Este 32 Este 0 -- -- 35
2017-08-26 11:00:00 29.6 13 Nordeste 24 Nordeste 0 -- -- 37
2017-08-26 10:00:00 28.6 0 Calma 8 Nordeste 0 -- -- 45
2017-08-26 09:00:00 22.6 0 Calma 10 Noroeste 0 -- -- 59
2017-08-26 08:00:00 21.3 0 Calma 7 Sur 0 -- -- 62
2017-08-26 07:00:00 21.3 0 Calma 5 Sudoeste 0 -- -- 63
2017-08-26 06:00:00 21.8 0 Calma 7 Oeste 0 -- -- 62
2017-08-26 05:00:00 22.4 3 Nordeste 6 Este 0 -- -- 62
2017-08-26 04:00:00 22.8 5 Noroeste 14 Nordeste 0 -- -- 58
2017-08-26 03:00:00 22.4 0 Calma 9 Noroeste 0 -- -- 55
2017-08-26 02:00:00 23.4 3 Noroeste 5 Norte 0 -- -- 49
2017-08-26 01:00:00 23.2 0 Calma 8 Oeste 0 -- -- 49
2017-08-26 00:00:00 23.6 4 Nordeste 9 Este 0 -- -- 53